首页
METAR-TAF:

METAR-TAF

机场 :

伦敦国际机场

伦敦, 安大略省, 加拿大

纬度: 43-02N, 经度: 081-09W, 海拔: 278米

当前天气观测

该预报发布于24分钟前的03:00 UTC
静风
温度 13°C
湿度 94%
气压 1014 hPa
能見度: 24.1公里
少量云层高于13000英尺

METAR: CYXU 170300Z 00000KT 15SM FEW130 13/12 A2995 RMK AC2 SLP145

时间: 23:24 (03:24 UTC)

预报

该预报发布于3小时和46分钟前的23:38 UTC
预报有效从17日的 00点(UTC)到 17日的 24点(UTC)
风速7节,风向
能見度: 10公里
少量云层高于3000英尺
散云层高于12000英尺
成为
从 17日的 12点(UTC)到 17日的 14点(UTC)
风速10节,风向
从 17日的 2300点(UTC)
风速6节,风向东转东北
能見度: 10公里
少量云层高于4000英尺

TAF: CYXU 162338Z 1700/1724 10007KT P6SM FEW030 SCT120 BECMG 1712/1714 09010KT FM172300 06006KT P6SM FEW040 RMK NXT FCST BY 170600Z

超过4000个机场的气象观测和天气预报(METAR&TAF报告)。

可查询的气象台以黄色和红色小点在地图上表示。

将鼠标移到小点上方,可查看气象台名称。

然后点击查看天气观测和预报。

如需切换地图:点击带黑十字的绿色按钮放大地图;点击带横线的绿色按钮缩小地图;或者点击绿色箭头查看邻近地区的地图。


METAR-TAF: